Time;durP1;ratioP1;P1;durP2;ratioP2;P2;SDS_P1;SDS_P2;PMS_P1;PMS_P2;Temp;Humidity;BMP_temperature;BMP_pressure;BME280_temperature;BME280_humidity;BME280_pressure;Samples;Min_cycle;Max_cycle;Signal;HPM_P1;HPM_P2
2023/09/02 00:01:16;;;;;;;;;;;22.90;99.90;;;;;;5116844;28;20007;-68
2023/09/02 00:03:42;;;;;;;;;;;22.90;99.90;;;;;;5116207;28;19966;-67
2023/09/02 00:06:07;;;;;;;;;;;22.90;99.90;;;;;;5116725;28;19915;-67
2023/09/02 00:08:33;;;;;;;;;;;22.90;99.90;;;;;;5116040;28;20450;-68
2023/09/02 00:10:59;;;;;;;;;;;22.90;99.90;;;;;;5116346;28;19914;-68
2023/09/02 00:13:25;;;;;;;;;;;22.90;99.90;;;;;;5116563;28;20374;-69
2023/09/02 00:15:50;;;;;;;;;;;22.90;99.90;;;;;;5116005;28;19995;-68
2023/09/02 00:18:16;;;;;;;;;;;22.80;99.90;;;;;;5116200;28;19915;-68
2023/09/02 00:20:42;;;;;;;;;;;22.80;99.90;;;;;;5115866;28;19943;-68
2023/09/02 00:23:08;;;;;;;;;;;22.80;99.90;;;;;;5116314;28;19907;-68
2023/09/02 00:25:34;;;;;;;;;;;22.80;99.90;;;;;;5115809;28;19919;-68
2023/09/02 00:27:59;;;;;;;;;;;22.90;99.90;;;;;;5115942;28;19912;-69
2023/09/02 00:30:25;;;;;;;;;;;22.90;99.90;;;;;;5115610;28;19999;-68
2023/09/02 00:32:51;;;;;;;;;;;22.80;99.90;;;;;;5116073;28;19961;-68
2023/09/02 00:35:17;;;;;;;;;;;22.80;99.90;;;;;;5115596;28;19912;-68
2023/09/02 00:37:43;;;;;;;;;;;22.80;99.90;;;;;;5115486;28;20332;-68
2023/09/02 00:40:12;;;;;;;;;;;22.80;99.90;;;;;;5115446;28;20002;-68
2023/09/02 00:42:38;;;;;;;;;;;22.70;99.90;;;;;;5096331;28;20007;-68
2023/09/02 00:45:04;;;;;;;;;;;22.70;99.90;;;;;;5115431;28;19911;-68
2023/09/02 00:47:30;;;;;;;;;;;22.80;99.90;;;;;;5115859;28;20259;-69
2023/09/02 00:49:57;;;;;;;;;;;22.80;99.90;;;;;;5115465;28;19937;-68
2023/09/02 00:52:23;;;;;;;;;;;22.70;99.90;;;;;;5115686;28;19908;-70
2023/09/02 00:54:49;;;;;;;;;;;22.70;99.90;;;;;;5096917;28;19957;-67
2023/09/02 00:57:15;;;;;;;;;;;22.70;99.90;;;;;;5115048;28;19915;-70
2023/09/02 00:59:41;;;;;;;;;;;22.70;99.90;;;;;;5115171;28;19908;-68
2023/09/02 01:02:09;;;;;;;;;;;22.70;99.90;;;;;;5115549;28;19908;-68
2023/09/02 01:04:34;;;;;;;;;;;22.70;99.90;;;;;;5115249;28;19912;-68
2023/09/02 01:07:01;;;;;;;;;;;22.80;99.90;;;;;;5114941;28;19907;-67
2023/09/02 01:09:27;;;;;;;;;;;22.70;99.90;;;;;;5114871;28;19916;-68
2023/09/02 01:11:53;;;;;;;;;;;22.70;99.90;;;;;;5114779;28;20378;-68
2023/09/02 01:14:19;;;;;;;;;;;22.70;99.90;;;;;;5114890;28;19912;-68
2023/09/02 01:16:45;;;;;;;;;;;22.60;99.90;;;;;;5096532;28;19907;-68
2023/09/02 01:19:12;;;;;;;;;;;22.70;99.90;;;;;;5096451;28;20428;-68
2023/09/02 01:21:44;;;;;;;;;;;22.70;99.90;;;;;;5114956;28;19908;-67
2023/09/02 01:24:19;;;;;;;;;;;22.60;99.90;;;;;;5114401;28;19955;-67
2023/09/02 01:27:03;;;;;;;;;;;22.70;99.90;;;;;;5114565;28;19908;-69
2023/09/02 01:29:32;;;;;;;;;;;22.70;99.90;;;;;;5115104;28;19998;-69
2023/09/02 01:32:00;;;;;;;;;;;22.70;99.90;;;;;;5114547;28;19907;-69
2023/09/02 01:34:28;;;;;;;;;;;22.60;99.90;;;;;;5114549;28;19907;-68
2023/09/02 01:36:54;;;;;;;;;;;22.70;99.90;;;;;;5114429;28;19927;-69
2023/09/02 01:39:22;;;;;;;;;;;22.60;99.90;;;;;;5114782;28;20006;-68
2023/09/02 01:41:49;;;;;;;;;;;22.60;99.90;;;;;;5095926;28;19956;-68
2023/09/02 01:44:15;;;;;;;;;;;22.60;99.90;;;;;;5114396;28;19907;-68
2023/09/02 01:46:41;;;;;;;;;;;22.60;99.90;;;;;;5114889;28;19992;-70
2023/09/02 01:49:08;;;;;;;;;;;22.60;99.90;;;;;;5114439;28;19989;-68
2023/09/02 01:51:34;;;;;;;;;;;22.60;99.90;;;;;;5095887;28;20013;-68
2023/09/02 01:54:00;;;;;;;;;;;22.60;99.90;;;;;;5113510;28;20396;-67
2023/09/02 01:56:26;;;;;;;;;;;22.60;99.90;;;;;;5113758;28;19907;-68
2023/09/02 01:58:53;;;;;;;;;;;22.60;99.90;;;;;;5114406;28;19915;-69
2023/09/02 02:01:18;;;;;;;;;;;22.50;99.90;;;;;;5114011;28;19933;-70
2023/09/02 02:04:07;;;;;;;;;;;22.50;99.90;;;;;;5114357;28;19912;-68
2023/09/02 02:06:35;;;;;;;;;;;22.40;99.90;;;;;;5103055;28;20002;-68
2023/09/02 02:09:05;;;;;;;;;;;22.50;99.90;;;;;;5095688;28;19970;-69
2023/09/02 02:11:35;;;;;;;;;;;22.40;99.90;;;;;;5113818;28;19908;-68
2023/09/02 02:14:04;;;;;;;;;;;22.40;99.90;;;;;;5114539;28;20002;-69
2023/09/02 02:16:30;;;;;;;;;;;22.40;99.90;;;;;;5114206;28;19998;-68
2023/09/02 02:18:56;;;;;;;;;;;22.40;99.90;;;;;;5113977;28;19966;-70
2023/09/02 02:21:22;;;;;;;;;;;22.40;99.90;;;;;;5113965;28;19907;-67
2023/09/02 02:23:48;;;;;;;;;;;22.30;99.90;;;;;;5113850;28;19995;-68
2023/09/02 02:26:15;;;;;;;;;;;22.30;99.90;;;;;;5114038;28;19936;-68
2023/09/02 02:28:42;;;;;;;;;;;22.30;99.90;;;;;;5113735;28;19915;-68
2023/09/02 02:31:07;;;;;;;;;;;22.30;99.90;;;;;;5113875;28;19938;-69
2023/09/02 02:33:33;;;;;;;;;;;22.30;99.90;;;;;;5113896;28;20010;-69
2023/09/02 02:36:00;;;;;;;;;;;22.30;99.90;;;;;;5095304;28;19980;-69
2023/09/02 02:38:25;;;;;;;;;;;22.30;99.90;;;;;;5114365;28;19908;-68
2023/09/02 02:40:51;;;;;;;;;;;22.10;99.90;;;;;;5113586;28;19915;-69
2023/09/02 02:43:17;;;;;;;;;;;22.10;99.90;;;;;;5114223;28;19950;-68
2023/09/02 02:45:43;;;;;;;;;;;22.10;99.90;;;;;;5095334;28;19940;-69
2023/09/02 02:48:15;;;;;;;;;;;22.10;99.90;;;;;;5095295;28;20249;-68
2023/09/02 02:50:41;;;;;;;;;;;22.10;99.90;;;;;;5114162;28;19919;-68
2023/09/02 02:53:08;;;;;;;;;;;22.10;99.90;;;;;;5113482;28;19908;-68
2023/09/02 02:55:34;;;;;;;;;;;22.10;99.90;;;;;;5113446;28;19919;-68
2023/09/02 02:58:00;;;;;;;;;;;22.10;99.90;;;;;;5114129;28;19908;-67
2023/09/02 03:00:26;;;;;;;;;;;22.10;99.90;;;;;;5095223;28;19908;-68
2023/09/02 03:02:52;;;;;;;;;;;22.00;99.90;;;;;;5114056;28;19953;-68
2023/09/02 03:05:20;;;;;;;;;;;22.00;99.90;;;;;;5095208;28;19931;-70
2023/09/02 03:07:47;;;;;;;;;;;22.00;99.90;;;;;;5117157;28;19919;-68
2023/09/02 03:10:13;;;;;;;;;;;22.00;99.90;;;;;;5117322;28;19968;-68
2023/09/02 03:12:38;;;;;;;;;;;22.00;99.90;;;;;;5117153;28;19911;-69
2023/09/02 03:15:04;;;;;;;;;;;22.00;99.90;;;;;;5117531;28;20347;-68
2023/09/02 03:17:30;;;;;;;;;;;21.90;99.90;;;;;;5117176;28;19907;-68
2023/09/02 03:19:56;;;;;;;;;;;21.90;99.90;;;;;;5117030;28;19915;-67
2023/09/02 03:22:22;;;;;;;;;;;21.90;99.90;;;;;;5117454;28;19908;-69
2023/09/02 03:24:54;;;;;;;;;;;21.80;99.90;;;;;;5098571;28;19907;-67
2023/09/02 03:27:20;;;;;;;;;;;21.80;99.90;;;;;;5098373;28;19908;-68
2023/09/02 03:29:49;;;;;;;;;;;21.90;99.90;;;;;;5098609;28;20399;-68
2023/09/02 03:32:15;;;;;;;;;;;21.90;99.90;;;;;;5116866;28;19908;-68
2023/09/02 03:34:41;;;;;;;;;;;21.90;99.90;;;;;;5117114;28;19908;-68
2023/09/02 03:37:06;;;;;;;;;;;21.90;99.90;;;;;;5116537;28;19973;-69
2023/09/02 03:39:33;;;;;;;;;;;21.90;99.90;;;;;;5117341;28;19907;-70
2023/09/02 03:41:59;;;;;;;;;;;21.90;99.90;;;;;;5116471;28;19908;-70
2023/09/02 03:44:25;;;;;;;;;;;21.80;99.90;;;;;;5117256;28;19948;-70
2023/09/02 03:46:51;;;;;;;;;;;21.70;99.90;;;;;;5116959;28;19915;-70
2023/09/02 03:49:17;;;;;;;;;;;21.70;99.90;;;;;;5098189;28;19915;-70
2023/09/02 03:51:43;;;;;;;;;;;21.60;99.90;;;;;;5116550;28;19958;-70
2023/09/02 03:54:09;;;;;;;;;;;21.60;99.90;;;;;;5116447;28;19908;-71
2023/09/02 03:56:36;;;;;;;;;;;21.60;99.90;;;;;;5116585;28;19920;-70
2023/09/02 03:59:03;;;;;;;;;;;21.60;99.90;;;;;;5116388;28;19931;-67
2023/09/02 04:01:30;;;;;;;;;;;21.60;99.90;;;;;;5116386;28;20316;-70
2023/09/02 04:03:56;;;;;;;;;;;21.60;99.90;;;;;;5116423;28;19907;-71
2023/09/02 04:06:22;;;;;;;;;;;21.60;99.90;;;;;;5116293;28;20280;-70
2023/09/02 04:08:48;;;;;;;;;;;21.60;99.90;;;;;;5116202;28;19916;-69
2023/09/02 04:11:14;;;;;;;;;;;21.60;99.90;;;;;;5116034;28;19918;-70
2023/09/02 04:13:41;;;;;;;;;;;21.60;99.90;;;;;;5116067;28;19911;-67
2023/09/02 04:16:10;;;;;;;;;;;21.60;99.90;;;;;;5097846;28;20053;-70
2023/09/02 04:18:36;;;;;;;;;;;21.60;99.90;;;;;;5115223;28;19919;-68
2023/09/02 04:21:03;;;;;;;;;;;21.60;99.90;;;;;;5116319;28;20378;-69
2023/09/02 04:23:29;;;;;;;;;;;21.70;99.90;;;;;;5097613;28;19908;-70
2023/09/02 04:25:56;;;;;;;;;;;21.70;99.90;;;;;;5115808;28;20117;-70
2023/09/02 04:28:22;;;;;;;;;;;21.70;99.90;;;;;;5115846;28;19920;-69
2023/09/02 04:30:48;;;;;;;;;;;21.70;99.90;;;;;;5115810;28;19908;-70
2023/09/02 04:33:14;;;;;;;;;;;21.70;99.90;;;;;;5115966;28;20023;-70
2023/09/02 04:35:41;;;;;;;;;;;21.70;99.90;;;;;;5097157;28;19908;-70
2023/09/02 04:38:07;;;;;;;;;;;21.70;99.90;;;;;;5116268;28;19915;-69
2023/09/02 04:40:36;;;;;;;;;;;21.70;99.90;;;;;;5097411;28;20383;-70
2023/09/02 04:43:03;;;;;;;;;;;21.60;99.90;;;;;;5097570;28;19968;-69
2023/09/02 04:45:33;;;;;;;;;;;21.70;99.90;;;;;;5097260;28;19908;-70
2023/09/02 04:47:59;;;;;;;;;;;21.60;99.90;;;;;;5115720;28;19918;-70
2023/09/02 04:50:24;;;;;;;;;;;21.60;99.90;;;;;;5115425;28;20002;-67
2023/09/02 04:52:50;;;;;;;;;;;21.70;99.90;;;;;;5115309;28;20002;-70
2023/09/02 04:55:16;;;;;;;;;;;21.70;99.90;;;;;;5115883;28;19908;-70
2023/09/02 04:57:42;;;;;;;;;;;21.70;99.90;;;;;;5115019;28;19908;-69
2023/09/02 05:00:09;;;;;;;;;;;21.80;99.90;;;;;;5115194;28;19908;-69
2023/09/02 05:02:35;;;;;;;;;;;21.80;99.90;;;;;;5096747;28;19974;-70
2023/09/02 05:05:00;;;;;;;;;;;21.80;99.90;;;;;;5115491;28;20264;-68
2023/09/02 05:07:26;;;;;;;;;;;21.80;99.90;;;;;;5096467;28;19908;-68
2023/09/02 05:09:53;;;;;;;;;;;21.70;99.90;;;;;;5115131;28;19954;-68
2023/09/02 05:12:20;;;;;;;;;;;21.80;99.90;;;;;;5114724;28;19907;-68
2023/09/02 05:14:46;;;;;;;;;;;21.80;99.90;;;;;;5114842;28;19908;-68
2023/09/02 05:17:12;;;;;;;;;;;21.80;99.90;;;;;;5114816;28;19908;-68
2023/09/02 05:19:37;;;;;;;;;;;21.80;99.90;;;;;;5114979;28;20276;-68
2023/09/02 05:22:03;;;;;;;;;;;21.90;99.90;;;;;;5114593;28;19908;-67
2023/09/02 05:24:29;;;;;;;;;;;22.60;99.90;;;;;;5114790;28;19950;-70
2023/09/02 05:26:55;;;;;;;;;;;23.20;99.90;;;;;;5114465;28;19916;-69
2023/09/02 05:29:21;;;;;;;;;;;23.80;99.90;;;;;;5114555;28;19916;-68
2023/09/02 05:31:46;;;;;;;;;;;24.10;99.90;;;;;;5114599;28;19908;-69
2023/09/02 05:34:12;;;;;;;;;;;24.60;99.90;;;;;;5115105;28;19908;-70
2023/09/02 05:36:38;;;;;;;;;;;25.30;99.90;;;;;;5114517;28;19965;-70
2023/09/02 05:39:04;;;;;;;;;;;25.60;99.90;;;;;;5114974;28;19919;-69
2023/09/02 05:41:30;;;;;;;;;;;25.60;99.90;;;;;;5114259;28;19912;-70
2023/09/02 05:43:55;;;;;;;;;;;26.10;99.90;;;;;;5114455;28;20264;-70
2023/09/02 05:46:22;;;;;;;;;;;26.70;99.90;;;;;;5114348;28;19908;-69
2023/09/02 05:48:48;;;;;;;;;;;27.00;99.90;;;;;;5114249;28;19923;-70
2023/09/02 05:51:13;;;;;;;;;;;27.10;99.90;;;;;;5114292;28;19907;-69
2023/09/02 05:53:39;;;;;;;;;;;27.70;99.90;;;;;;5114742;28;20371;-70
2023/09/02 05:56:05;;;;;;;;;;;28.40;99.90;;;;;;5114274;28;20006;-69
2023/09/02 05:58:31;;;;;;;;;;;28.80;99.90;;;;;;5114543;28;19908;-70
2023/09/02 06:01:03;;;;;;;;;;;29.20;99.90;;;;;;5114478;28;19915;-70
2023/09/02 06:03:29;;;;;;;;;;;29.40;99.90;;;;;;5114452;28;19915;-70
2023/09/02 06:05:55;;;;;;;;;;;29.70;99.90;;;;;;5114376;28;19908;-69
2023/09/02 06:08:21;;;;;;;;;;;30.60;99.90;;;;;;5095610;28;20436;-70
2023/09/02 06:10:56;;;;;;;;;;;30.90;99.90;;;;;;5113983;28;19914;-71
2023/09/02 06:13:22;;;;;;;;;;;31.20;99.90;;;;;;5095706;28;19916;-71
2023/09/02 06:15:48;;;;;;;;;;;30.70;99.90;;;;;;5114528;28;19908;-69
2023/09/02 06:18:13;;;;;;;;;;;30.70;99.90;;;;;;5113977;28;20369;-70
2023/09/02 06:20:39;;;;;;;;;;;30.60;99.90;;;;;;5095590;28;19912;-69
2023/09/02 06:23:05;;;;;;;;;;;31.30;99.90;;;;;;5113829;28;20273;-70
2023/09/02 06:25:31;;;;;;;;;;;31.60;99.90;;;;;;5113922;28;19915;-70
2023/09/02 06:27:56;;;;;;;;;;;31.90;99.90;;;;;;5113738;28;20003;-71
2023/09/02 06:30:22;;;;;;;;;;;31.90;99.90;;;;;;5113900;28;19908;-70
2023/09/02 06:32:48;;;;;;;;;;;32.10;99.90;;;;;;5114427;28;19908;-70
2023/09/02 06:35:15;;;;;;;;;;;31.30;99.90;;;;;;5113866;28;19958;-70
2023/09/02 06:37:44;;;;;;;;;;;31.50;99.90;;;;;;5113656;28;19927;-70
2023/09/02 06:40:10;;;;;;;;;;;31.70;99.90;;;;;;5114186;28;20371;-70
2023/09/02 06:42:35;;;;;;;;;;;30.90;99.90;;;;;;5117487;28;19911;-72
2023/09/02 06:45:01;;;;;;;;;;;31.30;99.90;;;;;;5118085;28;19908;-70
2023/09/02 06:47:27;;;;;;;;;;;30.90;99.90;;;;;;5117968;28;19908;-70
2023/09/02 06:49:53;;;;;;;;;;;31.00;99.90;;;;;;5117739;28;19918;-70
2023/09/02 06:52:19;;;;;;;;;;;31.50;99.90;;;;;;5117873;28;19914;-70
2023/09/02 06:54:48;;;;;;;;;;;31.20;99.90;;;;;;5117581;28;20275;-70
2023/09/02 06:57:15;;;;;;;;;;;31.00;99.90;;;;;;5098667;28;19916;-69
2023/09/02 06:59:41;;;;;;;;;;;31.40;99.90;;;;;;5117323;28;19908;-71
2023/09/02 07:02:06;;;;;;;;;;;32.40;99.90;;;;;;5117924;28;20301;-71
2023/09/02 07:04:32;;;;;;;;;;;32.10;99.90;;;;;;5117245;28;19915;-70
2023/09/02 07:06:58;;;;;;;;;;;32.10;99.90;;;;;;5117624;28;20279;-71
2023/09/02 07:09:24;;;;;;;;;;;33.50;99.90;;;;;;5117433;28;20047;-71
2023/09/02 07:11:50;;;;;;;;;;;35.00;99.90;;;;;;5098599;28;19908;-72
2023/09/02 07:14:16;;;;;;;;;;;34.80;99.90;;;;;;5117280;28;19915;-72
2023/09/02 07:16:42;;;;;;;;;;;35.80;99.90;;;;;;5117095;28;19908;-70
2023/09/02 07:19:07;;;;;;;;;;;36.20;99.90;;;;;;5117377;28;19970;-70
2023/09/02 07:21:33;;;;;;;;;;;35.90;99.90;;;;;;5117333;28;19908;-69
2023/09/02 07:23:59;;;;;;;;;;;35.50;99.90;;;;;;5116645;28;19908;-72
2023/09/02 07:26:29;;;;;;;;;;;35.30;99.90;;;;;;5117044;28;19911;-70
2023/09/02 07:28:54;;;;;;;;;;;35.40;99.90;;;;;;5116762;28;19919;-69
2023/09/02 07:31:20;;;;;;;;;;;34.60;99.90;;;;;;5116729;28;19915;-68
2023/09/02 07:33:46;;;;;;;;;;;33.80;99.90;;;;;;5116608;28;19977;-68
2023/09/02 07:36:12;;;;;;;;;;;32.90;99.90;;;;;;5098079;28;19924;-70
2023/09/02 07:38:39;;;;;;;;;;;32.30;99.90;;;;;;5116649;28;19998;-69
2023/09/02 07:41:05;;;;;;;;;;;31.40;99.90;;;;;;5116570;28;19908;-70
2023/09/02 07:43:31;;;;;;;;;;;31.60;99.90;;;;;;5116577;28;19908;-70
2023/09/02 07:45:57;;;;;;;;;;;31.80;99.90;;;;;;5116577;28;19912;-69
2023/09/02 07:48:23;;;;;;;;;;;31.70;99.90;;;;;;5116806;28;20356;-69
2023/09/02 07:50:49;;;;;;;;;;;32.30;99.90;;;;;;5116442;28;19939;-70
2023/09/02 07:53:14;;;;;;;;;;;32.70;99.90;;;;;;5115246;28;19949;-70
2023/09/02 07:55:40;;;;;;;;;;;32.90;99.90;;;;;;5116444;28;19908;-68
2023/09/02 07:58:07;;;;;;;;;;;33.00;99.90;;;;;;5116115;28;19964;-70
2023/09/02 08:00:33;;;;;;;;;;;32.80;99.90;;;;;;5097980;28;20271;-70
2023/09/02 08:02:59;;;;;;;;;;;32.70;99.90;;;;;;5097866;28;19915;-70
2023/09/02 08:05:25;;;;;;;;;;;32.80;99.90;;;;;;5116259;28;20325;-70
2023/09/02 08:07:50;;;;;;;;;;;32.50;99.90;;;;;;5116170;28;19922;-71
2023/09/02 08:10:16;;;;;;;;;;;32.70;99.90;;;;;;5116179;28;20002;-70
2023/09/02 08:12:42;;;;;;;;;;;32.50;99.90;;;;;;5115913;28;19908;-69
2023/09/02 08:15:11;;;;;;;;;;;32.70;99.90;;;;;;5116398;28;19912;-69
2023/09/02 08:17:38;;;;;;;;;;;32.60;99.90;;;;;;5115908;28;19908;-70
2023/09/02 08:20:05;;;;;;;;;;;31.60;99.90;;;;;;5098328;28;19974;-69
2023/09/02 08:22:31;;;;;;;;;;;31.90;99.90;;;;;;5116073;28;19955;-68
2023/09/02 08:24:56;;;;;;;;;;;32.00;99.90;;;;;;5116355;28;20291;-68
2023/09/02 08:27:24;;;;;;;;;;;32.00;99.90;;;;;;5115990;28;19958;-69
2023/09/02 08:29:50;;;;;;;;;;;32.00;99.90;;;;;;5115660;28;19916;-69
2023/09/02 08:32:16;;;;;;;;;;;32.00;99.90;;;;;;5115741;28;19911;-69
2023/09/02 08:34:41;;;;;;;;;;;32.00;99.90;;;;;;5115681;28;19953;-69
2023/09/02 08:37:07;;;;;;;;;;;32.50;99.90;;;;;;5115580;28;20283;-69
2023/09/02 08:39:34;;;;;;;;;;;32.30;99.90;;;;;;5115537;28;19911;-69
2023/09/02 08:42:00;;;;;;;;;;;32.00;99.90;;;;;;5115378;28;19970;-69
2023/09/02 08:44:29;;;;;;;;;;;32.40;99.90;;;;;;5116037;28;20343;-69
2023/09/02 08:46:56;;;;;;;;;;;32.50;99.90;;;;;;5115429;28;19918;-69
2023/09/02 08:49:22;;;;;;;;;;;32.50;99.90;;;;;;5115823;28;20371;-70
2023/09/02 08:51:48;;;;;;;;;;;32.50;99.90;;;;;;5115316;28;19908;-70
2023/09/02 08:54:14;;;;;;;;;;;32.70;99.90;;;;;;5115251;28;19908;-71
2023/09/02 08:56:42;;;;;;;;;;;32.50;99.90;;;;;;5096795;28;19979;-70
2023/09/02 08:59:09;;;;;;;;;;;32.20;99.90;;;;;;5115721;28;19919;-69
2023/09/02 09:01:40;;;;;;;;;;;32.00;99.90;;;;;;5115203;28;19912;-69
2023/09/02 09:04:07;;;;;;;;;;;31.50;99.90;;;;;;5114959;28;19914;-69
2023/09/02 09:06:34;;;;;;;;;;;31.60;99.90;;;;;;5115335;28;19927;-70
2023/09/02 09:08:59;;;;;;;;;;;31.60;99.90;;;;;;5115526;28;19955;-69
2023/09/02 09:11:26;;;;;;;;;;;31.70;99.90;;;;;;5114859;28;19908;-72
2023/09/02 09:13:53;;;;;;;;;;;31.60;99.90;;;;;;5114903;28;19908;-69
2023/09/02 09:16:26;;;;;;;;;;;31.30;99.90;;;;;;5114846;28;19915;-71
2023/09/02 09:18:52;;;;;;;;;;;31.40;99.90;;;;;;5115360;28;19907;-69
2023/09/02 09:21:17;;;;;;;;;;;31.20;99.90;;;;;;5114895;28;19908;-69
2023/09/02 09:23:43;;;;;;;;;;;31.30;99.90;;;;;;5114937;28;19908;-69
2023/09/02 09:26:14;;;;;;;;;;;31.20;99.90;;;;;;5114385;28;19908;-69
2023/09/02 09:28:52;;;;;;;;;;;31.30;99.90;;;;;;5114406;28;20030;-70
2023/09/02 09:31:19;;;;;;;;;;;31.30;99.90;;;;;;5115094;28;19934;-69
2023/09/02 09:33:48;;;;;;;;;;;31.10;99.90;;;;;;5114811;28;20003;-70
2023/09/02 09:36:14;;;;;;;;;;;30.60;99.90;;;;;;5114667;28;19919;-68
2023/09/02 09:38:40;;;;;;;;;;;30.20;99.90;;;;;;5114864;28;19915;-65
2023/09/02 09:41:09;;;;;;;;;;;29.90;99.90;;;;;;5114070;28;20272;-68
2023/09/02 09:43:35;;;;;;;;;;;29.90;99.90;;;;;;5114189;28;19912;-68
2023/09/02 09:46:01;;;;;;;;;;;29.90;99.90;;;;;;5096047;28;19915;-70
2023/09/02 09:48:26;;;;;;;;;;;29.70;99.90;;;;;;5114246;28;19942;-70
2023/09/02 09:50:52;;;;;;;;;;;29.90;99.90;;;;;;5114795;28;20002;-70
2023/09/02 09:53:18;;;;;;;;;;;30.20;99.90;;;;;;5114119;28;19909;-68
2023/09/02 09:55:44;;;;;;;;;;;30.10;99.90;;;;;;5114235;28;19908;-69
2023/09/02 09:58:09;;;;;;;;;;;29.60;99.90;;;;;;5114061;28;19908;-69
2023/09/02 10:00:35;;;;;;;;;;;29.70;99.90;;;;;;5114201;28;19919;-70
2023/09/02 10:03:02;;;;;;;;;;;29.90;99.90;;;;;;5114505;28;20011;-70
2023/09/02 10:05:29;;;;;;;;;;;29.90;99.90;;;;;;5114200;28;19961;-70
2023/09/02 10:08:08;;;;;;;;;;;29.70;99.90;;;;;;5113977;28;19923;-70
2023/09/02 10:10:38;;;;;;;;;;;29.50;99.90;;;;;;5114025;28;19994;-71
2023/09/02 10:13:06;;;;;;;;;;;29.40;99.90;;;;;;5113891;28;19908;-70
2023/09/02 10:15:32;;;;;;;;;;;29.60;99.90;;;;;;5094739;28;19908;-70
2023/09/02 10:18:02;;;;;;;;;;;29.60;99.90;;;;;;5113855;28;19914;-70
2023/09/02 10:20:28;;;;;;;;;;;29.90;99.90;;;;;;5114462;28;19908;-70
2023/09/02 10:22:57;;;;;;;;;;;30.30;99.90;;;;;;5114161;28;19931;-68
2023/09/02 10:25:28;;;;;;;;;;;30.20;99.90;;;;;;5113989;28;19915;-69
2023/09/02 10:28:04;;;;;;;;;;;29.80;99.90;;;;;;5113804;28;19919;-70
2023/09/02 10:30:34;;;;;;;;;;;29.70;99.90;;;;;;5114083;28;19908;-70
2023/09/02 10:33:06;;;;;;;;;;;29.10;99.90;;;;;;5113834;28;19908;-71
2023/09/02 10:35:33;;;;;;;;;;;29.30;99.90;;;;;;5114084;28;20374;-69
2023/09/02 10:38:02;;;;;;;;;;;29.00;99.90;;;;;;5113565;28;19919;-69
2023/09/02 10:40:32;;;;;;;;;;;29.40;99.90;;;;;;5114204;28;19908;-68
2023/09/02 10:42:58;;;;;;;;;;;29.80;99.90;;;;;;5113635;28;20024;-68
2023/09/02 10:45:24;;;;;;;;;;;30.00;99.90;;;;;;5114290;28;19930;-69
2023/09/02 10:47:50;;;;;;;;;;;29.80;99.90;;;;;;5113621;28;19912;-69
2023/09/02 10:50:18;;;;;;;;;;;30.10;99.90;;;;;;5113523;28;19954;-70
2023/09/02 10:52:44;;;;;;;;;;;29.90;99.90;;;;;;5113604;28;20027;-69
2023/09/02 10:55:10;;;;;;;;;;;29.70;99.90;;;;;;5113533;28;20352;-69
2023/09/02 10:57:53;;;;;;;;;;;29.80;99.90;;;;;;5113365;28;20275;-69
2023/09/02 11:00:20;;;;;;;;;;;30.10;99.90;;;;;;5113537;28;19908;-69
2023/09/02 11:02:47;;;;;;;;;;;30.40;99.90;;;;;;5113930;28;19925;-69
2023/09/02 11:05:13;;;;;;;;;;;30.40;99.90;;;;;;5113820;28;19908;-69
2023/09/02 11:07:40;;;;;;;;;;;30.20;99.90;;;;;;5113276;28;19960;-70
2023/09/02 11:10:09;;;;;;;;;;;30.20;99.90;;;;;;5114187;28;19939;-70
2023/09/02 11:12:35;;;;;;;;;;;30.30;99.90;;;;;;5113416;28;19907;-71
2023/09/02 11:15:07;;;;;;;;;;;30.40;99.90;;;;;;5095190;28;19992;-71
2023/09/02 11:17:33;;;;;;;;;;;30.60;99.90;;;;;;5113924;28;19908;-70
2023/09/02 11:20:00;;;;;;;;;;;30.50;99.90;;;;;;5095187;28;19908;-70
2023/09/02 11:22:48;;;;;;;;;;;29.70;99.90;;;;;;5113539;28;19912;-70
2023/09/02 11:25:23;;;;;;;;;;;29.90;99.90;;;;;;5082065;28;19984;-70
2023/09/02 11:27:49;;;;;;;;;;;30.30;99.90;;;;;;5115559;28;20002;-71
2023/09/02 11:30:15;;;;;;;;;;;30.50;99.90;;;;;;5117031;28;20000;-70
2023/09/02 11:32:45;;;;;;;;;;;30.30;99.90;;;;;;5117505;28;19911;-70
2023/09/02 11:35:11;;;;;;;;;;;30.10;99.90;;;;;;5117227;28;19908;-70
2023/09/02 11:37:37;;;;;;;;;;;30.00;99.90;;;;;;5116781;28;20375;-70
2023/09/02 11:40:16;;;;;;;;;;;29.90;99.90;;;;;;5116887;28;19993;-71
2023/09/02 11:42:52;;;;;;;;;;;29.80;99.90;;;;;;5116879;28;19912;-70
2023/09/02 11:45:18;;;;;;;;;;;29.70;99.90;;;;;;5116614;28;19908;-70
2023/09/02 11:47:44;;;;;;;;;;;29.80;99.90;;;;;;5117019;28;19915;-70
2023/09/02 11:50:15;;;;;;;;;;;29.70;99.90;;;;;;5098304;28;19919;-71
2023/09/02 11:52:41;;;;;;;;;;;29.80;99.90;;;;;;5116443;28;19908;-70
2023/09/02 11:55:08;;;;;;;;;;;30.00;99.90;;;;;;5116554;28;20271;-71
2023/09/02 11:57:33;;;;;;;;;;;29.70;99.90;;;;;;5116356;28;19962;-70
2023/09/02 11:59:59;;;;;;;;;;;29.90;99.90;;;;;;5116962;28;19908;-70
2023/09/02 12:02:25;;;;;;;;;;;30.10;99.90;;;;;;5116643;28;19918;-70
2023/09/02 12:04:52;;;;;;;;;;;30.40;99.90;;;;;;5098860;28;19907;-70
2023/09/02 12:07:20;;;;;;;;;;;30.40;99.90;;;;;;5116241;28;19908;-69
2023/09/02 12:09:46;;;;;;;;;;;30.20;99.90;;;;;;5116385;28;19938;-70
2023/09/02 12:12:12;;;;;;;;;;;30.00;99.90;;;;;;5097807;28;20002;-71
2023/09/02 12:14:40;;;;;;;;;;;29.90;99.90;;;;;;5116773;28;19908;-70
2023/09/02 12:17:06;;;;;;;;;;;29.30;99.90;;;;;;5097813;28;20287;-70
2023/09/02 12:19:32;;;;;;;;;;;29.60;99.90;;;;;;5116357;28;19934;-70
2023/09/02 12:22:00;;;;;;;;;;;29.40;99.90;;;;;;5116114;28;19985;-70
2023/09/02 12:24:26;;;;;;;;;;;29.60;99.90;;;;;;5098346;28;19994;-70
2023/09/02 12:26:52;;;;;;;;;;;29.60;99.90;;;;;;5115789;28;19915;-70
2023/09/02 12:29:19;;;;;;;;;;;30.10;99.90;;;;;;5097478;28;19915;-70
2023/09/02 12:31:54;;;;;;;;;;;30.10;99.90;;;;;;5116133;28;19953;-70
2023/09/02 12:34:20;;;;;;;;;;;30.20;99.90;;;;;;5115847;28;19908;-70
2023/09/02 12:36:46;;;;;;;;;;;30.10;99.90;;;;;;5115542;28;19920;-69
2023/09/02 12:39:25;;;;;;;;;;;29.90;99.90;;;;;;5114891;28;19914;-70
2023/09/02 12:41:51;;;;;;;;;;;30.10;99.90;;;;;;5115510;28;20360;-70
2023/09/02 12:44:20;;;;;;;;;;;30.00;99.90;;;;;;5097232;28;19933;-69
2023/09/02 12:46:46;;;;;;;;;;;29.80;99.90;;;;;;5115505;28;20363;-69
2023/09/02 12:49:16;;;;;;;;;;;29.60;99.90;;;;;;5115953;28;20276;-69
2023/09/02 12:51:41;;;;;;;;;;;29.80;99.90;;;;;;5115422;28;19998;-70
2023/09/02 12:54:11;;;;;;;;;;;30.00;99.90;;;;;;5115476;28;19998;-70
2023/09/02 12:56:37;;;;;;;;;;;30.30;99.90;;;;;;5115069;28;19976;-69
2023/09/02 12:59:03;;;;;;;;;;;30.50;99.90;;;;;;5115223;28;19940;-70
2023/09/02 13:01:29;;;;;;;;;;;30.40;99.90;;;;;;5115544;28;19994;-70
2023/09/02 13:03:57;;;;;;;;;;;30.10;99.90;;;;;;5115532;28;20553;-69
2023/09/02 13:06:24;;;;;;;;;;;30.30;99.90;;;;;;5115103;28;19912;-70
2023/09/02 13:08:50;;;;;;;;;;;30.40;99.90;;;;;;5115539;28;19916;-69
2023/09/02 13:11:15;;;;;;;;;;;30.50;99.90;;;;;;5115309;28;19919;-69
2023/09/02 13:13:41;;;;;;;;;;;30.30;99.90;;;;;;5096606;28;19954;-71
2023/09/02 13:16:07;;;;;;;;;;;30.50;99.90;;;;;;5096661;28;19915;-70
2023/09/02 13:18:33;;;;;;;;;;;30.50;99.90;;;;;;5115372;28;20010;-69
2023/09/02 13:20:59;;;;;;;;;;;30.50;99.90;;;;;;5115143;28;19907;-69
2023/09/02 13:23:25;;;;;;;;;;;30.50;99.90;;;;;;5115049;28;19908;-69
2023/09/02 13:25:51;;;;;;;;;;;30.50;99.90;;;;;;5097290;28;20348;-70
2023/09/02 13:28:17;;;;;;;;;;;30.50;99.90;;;;;;5114586;28;19912;-68
2023/09/02 13:30:45;;;;;;;;;;;30.50;99.90;;;;;;5115261;28;19951;-70
2023/09/02 13:33:11;;;;;;;;;;;30.50;99.90;;;;;;5114698;28;20010;-69
2023/09/02 13:35:37;;;;;;;;;;;30.40;99.90;;;;;;5114374;28;20010;-69
2023/09/02 13:38:03;;;;;;;;;;;30.40;99.90;;;;;;5114667;28;19927;-69
2023/09/02 13:40:33;;;;;;;;;;;30.30;99.90;;;;;;5114865;28;20344;-69
2023/09/02 13:43:02;;;;;;;;;;;30.10;99.90;;;;;;5096110;28;19914;-70
2023/09/02 13:45:29;;;;;;;;;;;30.00;99.90;;;;;;5114446;28;20299;-69
2023/09/02 13:47:55;;;;;;;;;;;29.90;99.90;;;;;;5114626;28;19960;-69
2023/09/02 13:50:22;;;;;;;;;;;30.10;99.90;;;;;;5114557;28;19962;-69
2023/09/02 13:52:51;;;;;;;;;;;29.90;99.90;;;;;;5114359;28;19914;-70
2023/09/02 13:55:20;;;;;;;;;;;30.00;99.90;;;;;;5114922;28;19976;-68
2023/09/02 13:57:46;;;;;;;;;;;30.00;99.90;;;;;;5114210;28;20006;-69
2023/09/02 14:00:16;;;;;;;;;;;29.90;99.90;;;;;;5114738;28;19954;-69
2023/09/02 14:02:43;;;;;;;;;;;29.90;99.90;;;;;;5114365;28;19914;-68
2023/09/02 14:05:13;;;;;;;;;;;30.00;99.90;;;;;;5095623;28;19908;-68
2023/09/02 14:07:40;;;;;;;;;;;29.90;99.90;;;;;;5113819;28;20007;-69
2023/09/02 14:10:07;;;;;;;;;;;29.70;99.90;;;;;;5114645;28;20023;-68
2023/09/02 14:12:32;;;;;;;;;;;29.80;99.90;;;;;;5095592;28;20414;-68
2023/09/02 14:14:58;;;;;;;;;;;29.70;99.90;;;;;;5114036;28;19946;-68